Time;durP1;ratioP1;P1;durP2;ratioP2;P2;SDS_P1;SDS_P2;PMS_P1;PMS_P2;Temp;Humidity;BMP_temperature;BMP_pressure;BME280_temperature;BME280_humidity;BME280_pressure;Samples;Min_cycle;Max_cycle;Signal;HPM_P1;HPM_P2
2021/08/25 00:00:25;;;;;;;14.40;7.88;;;;;;;23.94;64.24;100721.09;5082898;28;20036;-72
2021/08/25 00:02:53;;;;;;;14.43;8.50;;;;;;;23.94;64.23;100725.59;5090805;28;20048;-71
2021/08/25 00:05:21;;;;;;;16.42;8.70;;;;;;;23.97;64.54;100728.16;5092160;28;20392;-71
2021/08/25 00:07:48;;;;;;;15.90;7.97;;;;;;;23.87;64.58;100726.78;5082190;28;20055;-71
2021/08/25 00:10:15;;;;;;;16.88;8.18;;;;;;;23.89;64.43;100724.91;5074027;28;20370;-72
2021/08/25 00:12:43;;;;;;;15.45;7.88;;;;;;;23.96;64.31;100721.88;5072217;28;20094;-71
2021/08/25 00:15:11;;;;;;;14.90;8.25;;;;;;;23.89;64.36;100717.72;5071354;28;20045;-71
2021/08/25 00:17:40;;;;;;;16.05;8.68;;;;;;;23.90;64.48;100721.25;5071367;28;20052;-72
2021/08/25 00:20:09;;;;;;;18.42;8.23;;;;;;;23.86;64.72;100730.41;5072445;28;20519;-72
2021/08/25 00:22:36;;;;;;;13.73;8.65;;;;;;;23.78;64.43;100728.91;5079590;28;20529;-71
2021/08/25 00:25:04;;;;;;;15.13;8.15;;;;;;;23.82;64.04;100732.38;5090910;28;20036;-71
2021/08/25 00:27:32;;;;;;;14.48;8.32;;;;;;;23.76;64.05;100728.06;5091377;28;20044;-71
2021/08/25 00:29:59;;;;;;;19.67;9.25;;;;;;;23.59;64.41;100722.47;5091053;28;20147;-71
2021/08/25 00:32:27;;;;;;;13.25;8.10;;;;;;;23.55;64.93;100720.84;5080132;28;20044;-71
2021/08/25 00:34:56;;;;;;;18.02;8.95;;;;;;;23.65;64.64;100719.53;5090850;28;20409;-71
2021/08/25 00:37:23;;;;;;;18.70;9.38;;;;;;;23.66;64.71;100718.59;5089633;28;20048;-71
2021/08/25 00:39:51;;;;;;;16.80;8.73;;;;;;;23.74;64.54;100723.69;5091880;28;20051;-71
2021/08/25 00:42:18;;;;;;;16.98;9.02;;;;;;;23.84;64.06;100719.69;5090952;28;20048;-71
2021/08/25 00:44:46;;;;;;;17.63;8.93;;;;;;;23.72;64.59;100720.19;5085665;28;20051;-71
2021/08/25 00:47:14;;;;;;;15.82;8.60;;;;;;;23.66;65.02;100706.94;5078854;28;20044;-71
2021/08/25 00:49:44;;;;;;;11.52;8.25;;;;;;;23.71;64.95;100716.59;5090168;28;20411;-71
2021/08/25 00:52:14;;;;;;;17.52;8.90;;;;;;;23.59;65.30;100711.69;5080282;28;20056;-71
2021/08/25 00:54:41;;;;;;;15.10;9.00;;;;;;;23.50;65.55;100721.97;5071659;28;22058;-71
2021/08/25 00:57:09;;;;;;;12.90;8.23;;;;;;;23.61;65.29;100720.59;5070920;28;20705;-71
2021/08/25 00:59:38;;;;;;;19.13;9.65;;;;;;;23.70;64.96;100712.13;5070592;28;20043;-71
2021/08/25 01:02:16;;;;;;;16.00;9.20;;;;;;;23.72;64.88;100710.28;5074407;28;20043;-71
2021/08/25 01:04:48;;;;;;;16.83;8.18;;;;;;;23.53;65.38;100717.31;5089133;28;20044;-71
2021/08/25 01:07:19;;;;;;;17.30;8.95;;;;;;;23.51;65.64;100702.13;5089297;28;20083;-71
2021/08/25 01:09:46;;;;;;;16.92;8.70;;;;;;;23.52;65.64;100706.59;5081998;28;20093;-71
2021/08/25 01:12:15;;;;;;;15.18;8.23;;;;;;;23.52;65.59;100706.59;5070946;28;20041;-70
2021/08/25 01:14:43;;;;;;;14.30;9.02;;;;;;;23.50;65.71;100709.34;5070081;28;20043;-70
2021/08/25 01:17:12;;;;;;;23.73;9.20;;;;;;;23.52;65.73;100706.59;5071632;28;20378;-71
2021/08/25 01:19:48;;;;;;;18.65;8.80;;;;;;;23.51;66.17;100703.00;5070446;28;20110;-71
2021/08/25 01:22:19;;;;;;;15.07;9.32;;;;;;;23.54;65.84;100702.91;5075221;28;20044;-71
2021/08/25 01:24:49;;;;;;;15.30;9.07;;;;;;;23.57;65.72;100708.16;5070197;28;20106;-71
2021/08/25 01:27:19;;;;;;;17.35;8.80;;;;;;;23.42;65.89;100708.75;5070819;28;20044;-71
2021/08/25 01:29:50;;;;;;;15.65;8.45;;;;;;;23.23;66.73;100702.28;5069978;28;20534;-71
2021/08/25 01:32:18;;;;;;;14.60;8.85;;;;;;;23.33;66.81;100706.38;5072935;28;20059;-70
2021/08/25 01:34:51;;;;;;;16.13;9.40;;;;;;;23.39;66.23;100700.75;5068712;28;20102;-71
2021/08/25 01:37:18;;;;;;;19.60;9.93;;;;;;;23.42;66.47;100708.75;5079995;28;20072;-71
2021/08/25 01:39:45;;;;;;;17.55;9.77;;;;;;;23.46;65.99;100718.47;5082484;28;20489;-70
2021/08/25 01:42:13;;;;;;;18.75;9.93;;;;;;;23.36;66.13;100703.59;5080813;28;20044;-70
2021/08/25 01:44:40;;;;;;;15.25;9.68;;;;;;;23.34;66.40;100705.47;5089805;28;20052;-71
2021/08/25 01:47:10;;;;;;;20.40;9.10;;;;;;;23.35;66.15;100713.47;5090174;28;20043;-70
2021/08/25 01:49:37;;;;;;;18.48;9.32;;;;;;;23.35;66.00;100720.69;5090170;28;20033;-70
2021/08/25 01:52:06;;;;;;;15.13;8.65;;;;;;;23.34;66.13;100718.94;5089440;28;20101;-70
2021/08/25 01:54:33;;;;;;;16.83;9.30;;;;;;;23.39;66.00;100725.00;5089879;28;20040;-71
2021/08/25 01:57:01;;;;;;;16.83;9.38;;;;;;;23.36;66.17;100722.44;5077364;28;20400;-71
2021/08/25 01:59:28;;;;;;;18.95;8.68;;;;;;;23.33;66.86;100719.84;5070735;28;20211;-70
2021/08/25 02:01:56;;;;;;;16.45;8.93;;;;;;;23.28;67.02;100727.25;5070133;28;20423;-71
2021/08/25 02:04:25;;;;;;;19.70;10.30;;;;;;;23.28;66.86;100727.25;5076569;28;20059;-70
2021/08/25 02:06:53;;;;;;;16.67;9.70;;;;;;;23.29;66.74;100734.41;5088331;28;20036;-69
2021/08/25 02:09:21;;;;;;;17.90;10.52;;;;;;;23.14;66.77;100734.94;5090305;28;20499;-71
2021/08/25 02:11:49;;;;;;;18.85;10.25;;;;;;;22.98;67.34;100730.09;5076686;28;20484;-71
2021/08/25 02:14:17;;;;;;;17.92;9.80;;;;;;;23.03;67.54;100729.97;5086562;28;20403;-72
2021/08/25 02:16:44;;;;;;;17.58;9.05;;;;;;;23.08;67.34;100727.09;5090468;28;20040;-71
2021/08/25 02:19:12;;;;;;;15.45;8.77;;;;;;;23.03;67.44;100736.22;5074923;28;20599;-71
2021/08/25 02:21:43;;;;;;;15.38;9.65;;;;;;;23.07;67.54;100738.78;5070131;28;20048;-71
2021/08/25 02:24:10;;;;;;;18.77;9.75;;;;;;;23.11;67.47;100738.63;5068664;28;20060;-71
2021/08/25 02:26:38;;;;;;;16.48;9.25;;;;;;;23.14;67.47;100727.75;5079787;28;20044;-71
2021/08/25 02:29:05;;;;;;;20.50;10.18;;;;;;;23.09;67.74;100732.44;5089230;28;20043;-71
2021/08/25 02:31:33;;;;;;;15.43;9.90;;;;;;;23.05;67.94;100739.72;5085785;28;20382;-71
2021/08/25 02:34:00;;;;;;;17.17;10.00;;;;;;;23.08;67.90;100744.13;5088456;28;20047;-71
2021/08/25 02:36:28;;;;;;;17.05;9.45;;;;;;;23.12;68.15;100729.59;5074458;28;20052;-71
2021/08/25 02:38:57;;;;;;;16.98;10.40;;;;;;;23.11;68.61;100729.66;5075199;28;20044;-71
2021/08/25 02:41:24;;;;;;;16.90;9.65;;;;;;;23.12;68.93;100726.91;5089222;28;20052;-71
2021/08/25 02:43:52;;;;;;;17.65;9.45;;;;;;;23.07;69.02;100733.41;5090144;28;20044;-71
2021/08/25 02:46:20;;;;;;;22.33;10.45;;;;;;;23.03;68.46;100741.63;5076765;28;20075;-71
2021/08/25 02:48:48;;;;;;;16.17;10.15;;;;;;;23.01;68.45;100746.16;5071037;28;20048;-71
2021/08/25 02:51:16;;;;;;;15.85;10.30;;;;;;;22.98;68.39;100732.78;5088774;28;20044;-71
2021/08/25 02:53:43;;;;;;;18.33;9.60;;;;;;;22.99;68.51;100736.38;5086646;28;20051;-73
2021/08/25 02:56:13;;;;;;;18.77;9.93;;;;;;;23.00;68.72;100744.41;5086495;28;20063;-71
2021/08/25 02:58:40;;;;;;;19.77;9.88;;;;;;;23.01;68.69;100748.88;5072769;28;20036;-71
2021/08/25 03:01:08;;;;;;;17.90;9.73;;;;;;;22.98;69.04;100743.56;5092984;28;20036;-71
2021/08/25 03:03:35;;;;;;;16.67;9.35;;;;;;;22.91;69.71;100739.34;5092532;28;20090;-71
2021/08/25 03:06:03;;;;;;;24.10;10.05;;;;;;;22.94;69.86;100739.25;5092362;28;20032;-71
2021/08/25 03:08:30;;;;;;;17.58;10.25;;;;;;;22.95;69.56;100734.72;5084140;28;20044;-71
2021/08/25 03:10:57;;;;;;;17.40;10.60;;;;;;;22.88;69.64;100742.16;5091424;28;20040;-71
2021/08/25 03:13:26;;;;;;;18.38;10.25;;;;;;;22.78;70.01;100737.13;5092592;28;20407;-71
2021/08/25 03:15:54;;;;;;;15.35;10.02;;;;;;;22.82;70.03;100739.69;5092246;28;20036;-70
2021/08/25 03:18:21;;;;;;;19.05;10.43;;;;;;;22.86;69.78;100741.31;5090491;28;20036;-71
2021/08/25 03:20:49;;;;;;;15.00;9.55;;;;;;;22.91;69.50;100743.84;5076112;28;20052;-70
2021/08/25 03:23:16;;;;;;;17.55;10.73;;;;;;;22.93;69.40;100747.38;5073261;28;20094;-71
2021/08/25 03:25:43;;;;;;;19.98;10.48;;;;;;;22.90;69.39;100742.09;5073509;28;20059;-71
2021/08/25 03:28:11;;;;;;;15.05;9.57;;;;;;;22.85;69.80;100749.44;5089614;28;20043;-71
2021/08/25 03:30:40;;;;;;;18.17;10.23;;;;;;;22.86;69.81;100752.09;5092431;28;20576;-71
2021/08/25 03:33:07;;;;;;;20.05;9.65;;;;;;;22.89;69.68;100757.38;5089164;28;20029;-72
2021/08/25 03:35:35;;;;;;;18.50;10.02;;;;;;;22.87;69.92;100751.16;5072185;28;20045;-71
2021/08/25 03:38:02;;;;;;;15.50;9.20;;;;;;;22.88;70.00;100760.13;5072408;28;20032;-71
2021/08/25 03:40:32;;;;;;;20.15;10.95;;;;;;;22.89;69.78;100761.88;5077624;28;20550;-71
2021/08/25 03:42:59;;;;;;;17.20;10.15;;;;;;;22.89;69.54;100765.47;5092117;28;20111;-71
2021/08/25 03:45:27;;;;;;;19.70;10.68;;;;;;;22.88;69.44;100773.56;5091682;28;20048;-71
2021/08/25 03:47:56;;;;;;;14.82;9.60;;;;;;;22.75;69.92;100770.44;5091239;28;20043;-70
2021/08/25 03:50:23;;;;;;;21.25;9.48;;;;;;;22.72;70.07;100762.41;5072640;28;20496;-70
2021/08/25 03:52:51;;;;;;;15.88;9.80;;;;;;;22.76;70.04;100763.25;5081302;28;20044;-71
2021/08/25 03:55:18;;;;;;;16.35;9.65;;;;;;;22.71;70.31;100776.81;5082635;28;20048;-71
2021/08/25 03:57:45;;;;;;;20.75;9.90;;;;;;;22.78;70.17;100780.19;5071689;28;20040;-71
2021/08/25 04:00:14;;;;;;;17.40;8.93;;;;;;;22.87;70.01;100771.81;5086714;28;20052;-71
2021/08/25 04:02:41;;;;;;;15.60;10.00;;;;;;;22.96;70.03;100766.13;5091175;28;20500;-71
2021/08/25 04:05:12;;;;;;;15.73;9.05;;;;;;;22.97;70.23;100763.34;5073287;28;20052;-71
2021/08/25 04:07:39;;;;;;;16.27;9.15;;;;;;;22.88;70.79;100770.88;5091096;28;20043;-71
2021/08/25 04:10:07;;;;;;;19.55;9.07;;;;;;;22.91;70.83;100773.44;5091716;28;20036;-72
2021/08/25 04:12:34;;;;;;;14.32;9.18;;;;;;;22.92;70.61;100775.22;5091417;28;20040;-71
2021/08/25 04:15:04;;;;;;;17.65;9.63;;;;;;;23.02;70.29;100779.38;5089997;28;20408;-71
2021/08/25 04:17:31;;;;;;;16.23;8.98;;;;;;;23.14;70.21;100783.44;5090725;28;20054;-71
2021/08/25 04:19:58;;;;;;;16.38;9.45;;;;;;;23.23;70.14;100778.59;5091152;28;20042;-70
2021/08/25 04:22:27;;;;;;;14.95;8.38;;;;;;;23.31;70.20;100781.00;5089833;28;20059;-70
2021/08/25 04:24:55;;;;;;;17.38;8.60;;;;;;;23.36;70.32;100779.03;5071700;28;20052;-70
2021/08/25 04:27:23;;;;;;;19.98;9.55;;;;;;;23.44;70.24;100776.91;5071890;28;20051;-71
2021/08/25 04:29:51;;;;;;;14.55;8.38;;;;;;;23.51;70.09;100773.09;5072807;28;20040;-71
2021/08/25 04:32:19;;;;;;;17.10;9.07;;;;;;;23.62;70.04;100784.38;5091109;28;20051;-71
2021/08/25 04:34:46;;;;;;;14.90;8.38;;;;;;;23.74;69.91;100786.59;5090224;28;20055;-71
2021/08/25 04:37:13;;;;;;;16.33;7.93;;;;;;;23.90;69.67;100788.69;5091853;28;20412;-71
2021/08/25 04:39:43;;;;;;;18.02;7.75;;;;;;;24.09;70.00;100782.50;5090563;28;20132;-71
2021/08/25 04:42:10;;;;;;;17.13;8.07;;;;;;;24.23;69.84;100784.69;5081476;28;20051;-71
2021/08/25 04:44:38;;;;;;;13.57;7.10;;;;;;;24.40;69.99;100787.59;5072076;28;20071;-72
2021/08/25 04:47:05;;;;;;;15.73;7.20;;;;;;;24.61;69.87;100792.06;5070390;28;20044;-71
2021/08/25 04:49:33;;;;;;;10.50;5.97;;;;;;;24.83;70.41;100781.25;5070412;28;20037;-71
2021/08/25 04:52:00;;;;;;;13.63;6.57;;;;;;;25.06;70.50;100777.59;5079967;28;20102;-72
2021/08/25 04:54:28;;;;;;;12.70;5.95;;;;;;;25.26;70.50;100788.41;5072007;28;20131;-71
2021/08/25 04:56:57;;;;;;;15.13;5.85;;;;;;;25.40;70.29;100785.94;5073943;28;20495;-70
2021/08/25 04:59:24;;;;;;;13.07;6.75;;;;;;;25.60;70.02;100787.78;5072053;28;20052;-71
2021/08/25 05:01:52;;;;;;;13.50;6.03;;;;;;;25.81;69.64;100777.78;5071012;28;20040;-71
2021/08/25 05:04:19;;;;;;;15.05;6.00;;;;;;;26.02;69.39;100778.59;5070763;28;20044;-72
2021/08/25 05:06:46;;;;;;;16.08;6.47;;;;;;;26.23;68.95;100773.97;5076925;28;20051;-71
2021/08/25 05:09:14;;;;;;;13.68;6.72;;;;;;;26.44;68.67;100781.09;5088116;28;20052;-71
2021/08/25 05:11:41;;;;;;;16.20;6.45;;;;;;;26.69;68.27;100780.72;5091093;28;20055;-72
2021/08/25 05:14:10;;;;;;;17.05;6.22;;;;;;;26.91;67.89;100779.56;5090274;28;20055;-72
2021/08/25 05:16:37;;;;;;;12.43;6.10;;;;;;;27.08;67.39;100773.28;5078343;28;20041;-72
2021/08/25 05:19:05;;;;;;;12.27;5.10;;;;;;;27.27;66.45;100775.88;5079850;28;20044;-72
2021/08/25 05:21:33;;;;;;;10.65;5.70;;;;;;;27.46;65.50;100781.19;5074929;28;20032;-72
2021/08/25 05:24:01;;;;;;;9.90;5.00;;;;;;;27.64;64.52;100777.50;5074234;28;20049;-71
2021/08/25 05:26:29;;;;;;;13.48;5.38;;;;;;;27.77;63.05;100774.03;5070840;28;20056;-70
2021/08/25 05:28:57;;;;;;;12.15;5.10;;;;;;;27.94;62.32;100780.38;5074409;28;20051;-71
2021/08/25 05:31:27;;;;;;;12.88;4.97;;;;;;;28.13;61.54;100771.09;5077333;28;20079;-72
2021/08/25 05:33:56;;;;;;;9.05;5.20;;;;;;;28.33;60.39;100770.00;5079133;28;20040;-70
2021/08/25 05:36:23;;;;;;;12.32;5.22;;;;;;;28.41;59.35;100778.59;5080549;28;20041;-72
2021/08/25 05:38:51;;;;;;;9.82;4.85;;;;;;;28.62;59.04;100772.84;5091001;28;20496;-72
2021/08/25 05:41:18;;;;;;;13.55;4.63;;;;;;;28.85;58.59;100772.38;5087255;28;20048;-72
2021/08/25 05:43:46;;;;;;;8.90;4.40;;;;;;;29.10;57.90;100771.78;5090058;28;20051;-72
2021/08/25 05:46:13;;;;;;;7.70;4.10;;;;;;;29.36;57.27;100767.47;5090116;28;20050;-72
2021/08/25 05:48:42;;;;;;;10.45;4.38;;;;;;;29.61;56.50;100764.94;5088554;28;20040;-72
2021/08/25 05:51:11;;;;;;;11.43;4.50;;;;;;;29.79;56.08;100763.81;5075193;28;20044;-71
2021/08/25 05:53:38;;;;;;;8.60;4.30;;;;;;;29.93;55.01;100763.78;5085414;28;20047;-72
2021/08/25 05:56:06;;;;;;;10.27;3.95;;;;;;;30.14;54.58;100763.38;5088518;28;20054;-72
2021/08/25 05:58:33;;;;;;;8.10;4.30;;;;;;;30.28;54.11;100771.50;5083924;28;20039;-71
2021/08/25 06:01:01;;;;;;;9.27;4.28;;;;;;;30.49;53.56;100759.22;5079657;28;20044;-72
2021/08/25 06:03:28;;;;;;;8.73;4.40;;;;;;;30.73;52.71;100767.56;5090200;28;20048;-72
2021/08/25 06:05:57;;;;;;;12.15;4.05;;;;;;;30.95;51.60;100770.59;5079055;28;20051;-71
2021/08/25 06:08:25;;;;;;;7.30;3.53;;;;;;;31.07;50.71;100767.03;5077479;28;20044;-71
2021/08/25 06:10:52;;;;;;;10.88;4.43;;;;;;;31.16;50.36;100773.72;5082407;28;20492;-71
2021/08/25 06:13:20;;;;;;;9.95;4.38;;;;;;;31.38;49.74;100771.22;5074694;28;20423;-72
2021/08/25 06:15:48;;;;;;;10.27;4.05;;;;;;;31.49;49.27;100771.34;5079179;28;20101;-72
2021/08/25 06:18:15;;;;;;;11.70;3.95;;;;;;;31.56;49.13;100767.19;5087846;28;20060;-72
2021/08/25 06:20:42;;;;;;;9.15;4.15;;;;;;;31.58;48.26;100775.25;5075266;28;20051;-72
2021/08/25 06:23:11;;;;;;;7.80;3.65;;;;;;;31.70;47.97;100784.47;5069791;28;20040;-71
2021/08/25 06:25:41;;;;;;;8.63;4.35;;;;;;;31.71;47.64;100778.88;5085242;28;20044;-71
2021/08/25 06:28:08;;;;;;;10.07;4.07;;;;;;;31.75;47.92;100777.69;5080236;28;20036;-72
2021/08/25 06:30:36;;;;;;;8.75;3.90;;;;;;;31.86;47.19;100785.97;5086676;28;20404;-71
2021/08/25 06:33:04;;;;;;;9.57;3.75;;;;;;;32.07;47.21;100789.00;5074368;28;20051;-71
2021/08/25 06:35:32;;;;;;;9.98;4.00;;;;;;;32.31;46.54;100795.41;5085124;28;20048;-71
2021/08/25 06:37:59;;;;;;;8.85;3.85;;;;;;;32.48;46.42;100793.28;5090866;28;20028;-71
2021/08/25 06:40:28;;;;;;;10.38;4.25;;;;;;;32.64;46.19;100792.00;5086796;28;20048;-71
2021/08/25 06:42:56;;;;;;;11.15;4.38;;;;;;;32.76;45.82;100801.16;5089255;28;20044;-70
2021/08/25 06:45:23;;;;;;;7.18;3.70;;;;;;;32.86;45.18;100804.06;5082190;28;20119;-72
2021/08/25 06:47:51;;;;;;;9.40;3.13;;;;;;;32.94;44.34;100796.16;5090857;28;20043;-72
2021/08/25 06:50:18;;;;;;;9.32;3.83;;;;;;;33.07;43.93;100800.56;5091577;28;20483;-71
2021/08/25 06:52:45;;;;;;;10.68;3.88;;;;;;;33.18;43.76;100799.72;5092727;28;20507;-71
2021/08/25 06:55:12;;;;;;;11.02;3.67;;;;;;;33.23;43.69;100797.50;5076343;28;20611;-71
2021/08/25 06:57:41;;;;;;;10.95;3.33;;;;;;;33.28;44.42;100805.38;5072454;28;20079;-70
2021/08/25 07:00:09;;;;;;;11.23;3.78;;;;;;;33.40;44.29;100809.91;5072801;28;20531;-71
2021/08/25 07:02:37;;;;;;;14.55;3.30;;;;;;;33.52;44.05;100801.56;5092041;28;20052;-70
2021/08/25 07:05:07;;;;;;;10.73;3.60;;;;;;;33.61;43.85;100808.16;5093360;28;20040;-71
2021/08/25 07:07:34;;;;;;;9.23;3.67;;;;;;;33.67;43.23;100813.19;5076233;28;20048;-71
2021/08/25 07:10:02;;;;;;;8.57;3.53;;;;;;;33.68;43.30;100823.13;5072112;28;20037;-70
2021/08/25 07:12:29;;;;;;;9.38;3.50;;;;;;;33.80;42.83;100818.56;5074079;28;20044;-72
2021/08/25 07:14:58;;;;;;;11.80;3.78;;;;;;;33.90;42.82;100820.44;5072136;28;20039;-70
2021/08/25 07:17:26;;;;;;;10.18;3.95;;;;;;;33.99;42.49;100825.19;5078809;28;20044;-70
2021/08/25 07:19:53;;;;;;;6.90;3.72;;;;;;;34.08;42.47;100830.88;5074303;28;20382;-71
2021/08/25 07:22:20;;;;;;;11.10;3.67;;;;;;;34.10;42.38;100835.25;5072669;28;20040;-71
2021/08/25 07:24:48;;;;;;;10.57;3.67;;;;;;;34.13;41.90;100831.41;5072822;28;20045;-71
2021/08/25 07:27:15;;;;;;;8.43;3.60;;;;;;;34.09;41.56;100838.13;5084595;28;20048;-71
2021/08/25 07:29:43;;;;;;;9.32;3.03;;;;;;;34.24;41.42;100829.56;5092529;28;20036;-71
2021/08/25 07:32:12;;;;;;;7.45;3.38;;;;;;;34.38;41.29;100833.91;5092921;28;20043;-71
2021/08/25 07:34:40;;;;;;;10.30;3.72;;;;;;;34.23;41.39;100833.28;5092513;28;20039;-71
2021/08/25 07:37:07;;;;;;;8.93;3.28;;;;;;;34.41;40.79;100839.13;5087485;28;20086;-71
2021/08/25 07:39:34;;;;;;;6.95;3.00;;;;;;;34.43;40.43;100837.13;5071393;28;20040;-71
2021/08/25 07:42:02;;;;;;;8.10;3.83;;;;;;;34.60;40.37;100836.59;5072171;28;20047;-70
2021/08/25 07:44:29;;;;;;;7.50;3.45;;;;;;;34.75;40.53;100829.84;5072401;28;20391;-71
2021/08/25 07:46:56;;;;;;;9.07;3.75;;;;;;;34.68;40.58;100831.31;5075527;28;20039;-70
2021/08/25 07:49:25;;;;;;;11.48;3.60;;;;;;;34.66;40.65;100825.09;5090365;28;20040;-71
2021/08/25 07:51:53;;;;;;;9.15;3.25;;;;;;;34.76;40.47;100828.84;5088847;28;20047;-71
2021/08/25 07:54:20;;;;;;;7.07;3.50;;;;;;;34.63;40.49;100821.75;5092500;28;20044;-71
2021/08/25 07:56:48;;;;;;;8.02;3.55;;;;;;;34.54;40.63;100820.63;5092292;28;20036;-71
2021/08/25 07:59:15;;;;;;;7.95;3.28;;;;;;;34.68;40.11;100827.72;5092028;28;20036;-71
2021/08/25 08:01:42;;;;;;;9.32;3.42;;;;;;;34.63;40.45;100833.59;5075441;28;20044;-71
2021/08/25 08:04:09;;;;;;;11.35;3.83;;;;;;;34.77;40.38;100836.09;5071764;28;20044;-71
2021/08/25 08:06:38;;;;;;;11.23;3.30;;;;;;;34.83;39.89;100828.31;5077338;28;20071;-71
2021/08/25 08:09:06;;;;;;;6.22;3.28;;;;;;;34.93;40.03;100834.75;5071592;28;20055;-71
2021/08/25 08:11:33;;;;;;;10.20;3.13;;;;;;;35.18;39.62;100835.28;5071574;28;20041;-71
2021/08/25 08:14:01;;;;;;;8.38;3.20;;;;;;;35.36;39.06;100841.09;5071494;28;20603;-71
2021/08/25 08:16:32;;;;;;;6.82;2.97;;;;;;;35.53;38.92;100845.09;5071404;28;20416;-71
2021/08/25 08:19:02;;;;;;;9.75;3.72;;;;;;;35.35;39.14;100850.34;5071293;28;20515;-71
2021/08/25 08:21:30;;;;;;;8.02;3.42;;;;;;;35.50;38.30;100850.88;5089576;28;20058;-71
2021/08/25 08:24:00;;;;;;;6.45;3.05;;;;;;;35.61;38.17;100849.94;5071178;28;20062;-70
2021/08/25 08:26:29;;;;;;;14.80;3.83;;;;;;;35.70;38.47;100847.28;5076451;28;20059;-70
2021/08/25 08:28:57;;;;;;;8.25;3.10;;;;;;;35.54;38.19;100846.84;5091134;28;20496;-71
2021/08/25 08:31:25;;;;;;;5.18;2.75;;;;;;;35.47;38.21;100845.66;5091991;28;20036;-71
2021/08/25 08:33:52;;;;;;;18.80;3.83;;;;;;;35.61;37.64;100849.94;5090611;28;20044;-71
2021/08/25 08:36:19;;;;;;;8.80;3.13;;;;;;;35.35;38.47;100853.09;5091645;28;20937;-71
2021/08/25 08:38:48;;;;;;;11.52;3.25;;;;;;;35.33;38.04;100851.47;5081143;28;20051;-72
2021/08/25 08:41:16;;;;;;;7.93;3.42;;;;;;;35.40;37.88;100849.94;5073425;28;20055;-71
2021/08/25 08:43:44;;;;;;;8.07;3.50;;;;;;;35.42;38.02;100835.06;5091426;28;20044;-71
2021/08/25 08:46:14;;;;;;;8.98;3.40;;;;;;;35.52;37.85;100846.97;5081847;28;20035;-72
2021/08/25 08:48:42;;;;;;;9.77;3.15;;;;;;;35.82;37.80;100856.31;5077982;28;20050;-72
2021/08/25 08:51:11;;;;;;;8.27;3.05;;;;;;;35.85;37.12;100850.53;5087892;28;20051;-73
2021/08/25 08:53:39;;;;;;;12.23;3.28;;;;;;;35.60;37.34;100849.06;5088717;28;20040;-73
2021/08/25 08:56:08;;;;;;;9.10;3.05;;;;;;;35.63;37.63;100847.94;5084568;28;21500;-71
2021/08/25 08:58:38;;;;;;;9.93;2.92;;;;;;;35.85;36.52;100843.16;5081142;28;20044;-72
2021/08/25 09:01:06;;;;;;;7.63;2.85;;;;;;;35.65;36.76;100843.16;5086029;28;20043;-72
2021/08/25 09:03:36;;;;;;;10.57;3.08;;;;;;;35.58;36.88;100853.81;5080266;28;20043;-72
2021/08/25 09:06:05;;;;;;;7.47;3.60;;;;;;;35.38;37.25;100841.81;5086183;28;20043;-71
2021/08/25 09:08:34;;;;;;;6.57;3.05;;;;;;;35.55;36.79;100854.09;5077696;28;20044;-71
2021/08/25 09:11:05;;;;;;;8.45;3.45;;;;;;;35.52;36.55;100846.97;5085812;28;20036;-72
2021/08/25 09:13:42;;;;;;;5.20;2.58;;;;;;;35.41;36.37;100841.56;5081438;28;20036;-72
2021/08/25 09:16:10;;;;;;;7.30;2.83;;;;;;;35.51;36.57;100842.50;5080525;28;20044;-74
2021/08/25 09:18:37;;;;;;;9.05;3.55;;;;;;;35.50;37.64;100840.78;5076429;28;20117;-72
2021/08/25 09:21:07;;;;;;;11.13;2.95;;;;;;;35.34;38.00;100842.22;5074240;28;20044;-72
2021/08/25 09:23:35;;;;;;;7.57;2.67;;;;;;;35.43;36.71;100844.19;5079150;28;20766;-73
2021/08/25 09:26:08;;;;;;;5.78;2.70;;;;;;;35.56;35.21;100840.22;5080677;28;20044;-73
2021/08/25 09:28:39;;;;;;;7.32;2.95;;;;;;;35.37;35.16;100840.09;5085369;28;20412;-72
2021/08/25 09:31:08;;;;;;;11.68;3.05;;;;;;;35.37;35.57;100839.22;5077027;28;20052;-72
2021/08/25 09:33:36;;;;;;;9.57;3.25;;;;;;;35.52;35.06;100843.38;5080711;28;20551;-74
2021/08/25 09:36:06;;;;;;;8.45;3.30;;;;;;;35.59;35.14;100841.81;5079877;28;20044;-72
2021/08/25 09:38:35;;;;;;;7.40;3.75;;;;;;;35.26;36.51;100850.25;5074756;28;20051;-71
2021/08/25 09:41:07;;;;;;;6.82;2.95;;;;;;;35.10;36.20;100834.22;5070990;28;20052;-74
2021/08/25 09:43:41;;;;;;;10.52;3.55;;;;;;;35.03;36.21;100839.34;5083511;28;20040;-72
2021/08/25 09:46:17;;;;;;;12.88;4.05;;;;;;;34.70;37.44;100845.81;5083600;28;20044;-72
2021/08/25 09:48:47;;;;;;;9.38;3.28;;;;;;;34.74;37.54;100849.19;5079806;28;20044;-72
2021/08/25 09:51:16;;;;;;;11.70;3.78;;;;;;;34.86;37.14;100837.16;5077247;28;20322;-72
2021/08/25 09:53:47;;;;;;;11.10;3.25;;;;;;;34.71;37.11;100838.47;5080629;28;20044;-73
2021/08/25 09:56:27;;;;;;;6.97;3.10;;;;;;;34.55;37.82;100833.34;5077754;28;20578;-72
2021/08/25 09:58:56;;;;;;;9.75;3.63;;;;;;;34.56;37.42;100839.72;5079312;28;20496;-73
2021/08/25 10:01:24;;;;;;;9.52;3.38;;;;;;;34.57;37.72;100846.94;5078119;28;20036;-73
2021/08/25 10:03:52;;;;;;;9.45;3.10;;;;;;;34.36;37.65;100834.03;5086627;28;20430;-73
2021/08/25 10:06:21;;;;;;;6.95;3.13;;;;;;;33.91;38.18;100829.53;5084956;28;20048;-72
2021/08/25 10:08:49;;;;;;;10.02;3.35;;;;;;;33.70;38.97;100828.47;5081504;28;20044;-72
2021/08/25 10:11:19;;;;;;;11.20;3.15;;;;;;;33.86;39.01;100821.69;5088493;28;20131;-73
2021/08/25 10:13:46;;;;;;;8.48;3.03;;;;;;;33.74;39.09;100821.81;5088909;28;20415;-74
2021/08/25 10:16:39;;;;;;;7.90;3.15;;;;;;;33.54;39.55;100824.22;5079870;28;20048;-73
2021/08/25 10:19:36;;;;;;;8.85;3.25;;;;;;;33.46;39.55;100815.75;5080215;28;20084;-73
2021/08/25 10:22:05;;;;;;;9.15;3.45;;;;;;;33.72;39.02;100821.94;5083412;28;20784;-72
2021/08/25 10:25:00;;;;;;;8.68;3.17;;;;;;;33.86;39.16;100829.03;5085674;28;20495;-73
2021/08/25 10:27:30;;;;;;;13.02;3.40;;;;;;;33.97;38.89;100821.69;5074635;28;20119;-73
2021/08/25 10:30:18;;;;;;;6.95;3.00;;;;;;;34.14;37.97;100824.91;5083069;28;20079;-73
2021/08/25 10:33:12;;;;;;;8.65;2.95;;;;;;;34.16;37.20;100832.00;5082156;28;20043;-72
2021/08/25 10:35:42;;;;;;;8.65;3.03;;;;;;;34.12;38.06;100824.19;5084724;28;20123;-74
2021/08/25 10:38:22;;;;;;;8.23;3.20;;;;;;;33.99;38.64;100822.44;5083540;28;20472;-74
2021/08/25 10:40:51;;;;;;;6.10;2.80;;;;;;;34.12;38.79;100829.66;5081658;28;20047;-73
2021/08/25 10:43:37;;;;;;;9.40;3.40;;;;;;;34.02;39.22;100826.78;5074704;28;20041;-73
2021/08/25 10:46:07;;;;;;;7.20;3.30;;;;;;;34.04;38.80;100826.66;5079529;28;20441;-73
2021/08/25 10:48:41;;;;;;;8.90;3.40;;;;;;;33.58;40.05;100838.53;5080747;28;20044;-73
2021/08/25 10:51:24;;;;;;;7.93;3.25;;;;;;;33.58;41.01;100828.47;5079948;28;20508;-73
2021/08/25 10:53:52;;;;;;;7.03;3.70;;;;;;;33.78;40.55;100829.66;5080445;28;20036;-73
2021/08/25 10:56:29;;;;;;;7.90;3.30;;;;;;;34.22;39.86;100833.41;5087535;28;20048;-74
2021/08/25 10:59:00;;;;;;;8.75;3.72;;;;;;;34.51;39.34;100826.41;5081945;28;20040;-72
2021/08/25 11:01:29;;;;;;;8.35;3.42;;;;;;;34.65;39.33;100828.00;5079830;28;20051;-70
2021/08/25 11:04:00;;;;;;;9.27;3.70;;;;;;;34.50;39.69;100835.63;5082959;28;20044;-69
2021/08/25 11:06:35;;;;;;;9.77;4.18;;;;;;;34.39;40.16;100833.78;5086016;28;20054;-70
2021/08/25 11:09:17;;;;;;;7.88;3.05;;;;;;;34.33;39.86;100827.94;5088319;28;20069;-70
2021/08/25 11:11:46;;;;;;;8.27;3.22;;;;;;;34.24;39.87;100826.81;5083049;28;20040;-71
2021/08/25 11:14:18;;;;;;;9.55;3.50;;;;;;;33.99;39.72;100825.19;5073330;28;20048;-71
2021/08/25 11:16:46;;;;;;;9.20;3.28;;;;;;;34.30;39.35;100822.69;5077131;28;20051;-71
2021/08/25 11:19:36;;;;;;;10.80;3.30;;;;;;;34.94;37.84;100812.69;5078901;28;20035;-71
2021/08/25 11:22:05;;;;;;;7.78;3.38;;;;;;;35.06;37.22;100821.72;5081943;28;20043;-71
2021/08/25 11:24:40;;;;;;;6.40;2.60;;;;;;;35.06;36.65;100828.09;5077159;28;20039;-71
2021/08/25 11:27:27;;;;;;;6.13;3.08;;;;;;;35.36;35.73;100821.88;5085757;28;20055;-72